createdAt,value
2019-01-12T00:01:21.190Z,101617.63
2019-01-12T00:03:50.205Z,101615.51
2019-01-12T00:06:19.256Z,101614.33
2019-01-12T00:08:48.306Z,101610.04
2019-01-12T00:11:17.753Z,101607.51
2019-01-12T00:13:46.861Z,101611.84
2019-01-12T00:16:15.871Z,101607.57
2019-01-12T00:18:44.930Z,101608.88
2019-01-12T00:21:14.210Z,101607.20
2019-01-12T00:23:43.239Z,101606.77
2019-01-12T00:26:12.300Z,101607.22
2019-01-12T00:28:41.237Z,101605.98
2019-01-12T00:31:10.306Z,101604.27
2019-01-12T00:33:39.355Z,101605.12
2019-01-12T00:36:08.415Z,101606.39
2019-01-12T00:38:37.446Z,101609.35
2019-01-12T00:41:06.544Z,101592.88
2019-01-12T00:43:35.605Z,101598.39
2019-01-12T00:46:04.669Z,101596.72
2019-01-12T00:48:33.683Z,101588.67
2019-01-12T00:51:02.730Z,101591.63
2019-01-12T00:53:31.807Z,101583.64
2019-01-12T00:56:00.894Z,101588.70
2019-01-12T00:58:29.957Z,101586.61
2019-01-12T01:00:59.067Z,101578.15
2019-01-12T01:03:28.074Z,101590.39
2019-01-12T01:05:57.082Z,101584.92
2019-01-12T01:08:26.157Z,101580.28
2019-01-12T01:10:55.175Z,101588.31
2019-01-12T01:13:24.187Z,101578.61
2019-01-12T01:15:53.508Z,101591.71
2019-01-12T01:18:22.857Z,101581.59
2019-01-12T01:20:51.915Z,101590.04
2019-01-12T01:23:20.985Z,101587.92
2019-01-12T01:25:50.081Z,101577.38
2019-01-12T01:28:19.473Z,101579.06
2019-01-12T01:30:48.763Z,101573.16
2019-01-12T01:33:17.817Z,101566.81
2019-01-12T01:35:46.918Z,101569.78
2019-01-12T01:38:15.931Z,101573.16
2019-01-12T01:40:45.000Z,101570.62
2019-01-12T01:43:14.049Z,101584.14
2019-01-12T01:45:43.103Z,101568.95
2019-01-12T01:48:12.112Z,101566.43
2019-01-12T01:50:41.173Z,101558.81
2019-01-12T01:53:10.205Z,101561.79
2019-01-12T01:55:39.220Z,101551.24
2019-01-12T01:58:08.647Z,101547.02
2019-01-12T02:00:37.867Z,101548.72
2019-01-12T02:03:06.825Z,101547.87
2019-01-12T02:05:35.889Z,101539.42
2019-01-12T02:08:04.922Z,101547.44
2019-01-12T02:10:33.937Z,101533.92
2019-01-12T02:13:03.051Z,101527.60
2019-01-12T02:15:32.097Z,101529.28
2019-01-12T02:18:01.179Z,101525.91
2019-01-12T02:20:30.187Z,101526.34
2019-01-12T02:22:59.193Z,101522.54
2019-01-12T02:25:28.429Z,101524.21
2019-01-12T02:27:57.378Z,101519.16
2019-01-12T02:30:26.432Z,101510.72
2019-01-12T02:32:55.793Z,101506.48
2019-01-12T02:35:24.879Z,101506.91
2019-01-12T02:37:53.895Z,101496.34
2019-01-12T02:40:22.939Z,101491.70
2019-01-12T02:42:51.981Z,101489.59
2019-01-12T02:45:21.037Z,101485.38
2019-01-12T02:47:50.137Z,101484.09
2019-01-12T02:50:19.243Z,101473.13
2019-01-12T02:52:48.296Z,101475.24
2019-01-12T02:55:17.339Z,101478.20
2019-01-12T02:57:46.399Z,101474.40
2019-01-12T03:00:17.638Z,101469.33
2019-01-12T03:02:47.067Z,101469.75
2019-01-12T03:05:16.176Z,101453.70
2019-01-12T03:07:45.204Z,101465.53
2019-01-12T03:10:15.862Z,101453.28
2019-01-12T03:12:44.982Z,101463.45
2019-01-12T03:15:16.616Z,101460.91
2019-01-12T03:17:45.892Z,101466.82
2019-01-12T03:20:16.478Z,101457.52
2019-01-12T03:22:45.590Z,101453.73
2019-01-12T03:25:18.338Z,101449.92
2019-01-12T03:27:45.410Z,101445.70
2019-01-12T03:30:17.010Z,101444.85
2019-01-12T03:32:46.195Z,101444.43
2019-01-12T03:35:15.210Z,101444.44
2019-01-12T03:37:44.305Z,101442.31
2019-01-12T03:40:16.142Z,101440.63
2019-01-12T03:42:45.156Z,101442.31
2019-01-12T03:45:15.175Z,101438.93
2019-01-12T03:47:44.220Z,101425.41
2019-01-12T03:50:13.899Z,101419.08
2019-01-12T03:52:42.955Z,101421.19
2019-01-12T03:55:12.081Z,101417.39
2019-01-12T03:57:41.209Z,101412.33
2019-01-12T04:00:31.658Z,101408.51
2019-01-12T04:03:00.684Z,101411.47
2019-01-12T04:05:30.183Z,101401.33
2019-01-12T04:07:59.199Z,101407.66
2019-01-12T04:10:28.254Z,101398.38
2019-01-12T04:12:57.484Z,101409.36
2019-01-12T04:15:26.536Z,101399.21
2019-01-12T04:17:55.779Z,101390.76
2019-01-12T04:20:24.835Z,101390.36
2019-01-12T04:22:53.878Z,101392.05
2019-01-12T04:25:22.894Z,101386.97
2019-01-12T04:27:51.947Z,101386.14
2019-01-12T04:30:21.008Z,101380.22
2019-01-12T04:32:50.017Z,101372.20
2019-01-12T04:35:19.085Z,101375.99
2019-01-12T04:37:48.149Z,101383.59
2019-01-12T04:40:20.639Z,101377.27
2019-01-12T04:42:49.640Z,101378.55
2019-01-12T04:45:19.042Z,101378.14
2019-01-12T04:47:48.046Z,101373.08
2019-01-12T04:50:17.866Z,101378.97
2019-01-12T04:52:46.886Z,101383.19
2019-01-12T04:55:16.195Z,101381.09
2019-01-12T04:57:45.202Z,101373.91
2019-01-12T05:00:16.702Z,101374.75
2019-01-12T05:02:45.750Z,101372.22
2019-01-12T05:05:15.222Z,101369.27
2019-01-12T05:07:44.241Z,101365.05
2019-01-12T05:10:13.661Z,101364.61
2019-01-12T05:12:42.675Z,101365.89
2019-01-12T05:15:12.787Z,101369.25
2019-01-12T05:17:41.947Z,101367.58
2019-01-12T05:20:14.254Z,101365.03
2019-01-12T05:22:43.266Z,101359.55
2019-01-12T05:25:12.365Z,101365.45
2019-01-12T05:27:41.368Z,101361.66
2019-01-12T05:30:13.140Z,101353.66
2019-01-12T05:32:42.165Z,101344.78
2019-01-12T05:35:11.214Z,101339.71
2019-01-12T05:37:40.226Z,101335.89
2019-01-12T05:40:09.509Z,101335.89
2019-01-12T05:42:38.589Z,101332.52
2019-01-12T05:45:07.980Z,101330.84
2019-01-12T05:47:37.008Z,101326.62
2019-01-12T05:50:07.838Z,101325.36
2019-01-12T05:52:36.852Z,101318.16
2019-01-12T05:55:06.407Z,101313.08
2019-01-12T05:57:35.414Z,101318.56
2019-01-12T06:00:06.966Z,101310.55
2019-01-12T06:02:36.050Z,101320.23
2019-01-12T06:05:05.460Z,101309.66
2019-01-12T06:07:34.510Z,101302.91
2019-01-12T06:10:03.896Z,101298.26
2019-01-12T06:12:32.915Z,101299.08
2019-01-12T06:15:01.834Z,101294.86
2019-01-12T06:17:31.230Z,101301.64
2019-01-12T06:20:00.309Z,101290.63
2019-01-12T06:22:29.315Z,101294.84
2019-01-12T06:24:58.341Z,101286.87
2019-01-12T06:27:27.522Z,101278.00
2019-01-12T06:29:56.457Z,101280.55
2019-01-12T06:32:25.801Z,101286.05
2019-01-12T06:34:54.836Z,101273.80
2019-01-12T06:37:23.860Z,101276.77
2019-01-12T06:39:52.843Z,101274.69
2019-01-12T06:42:21.861Z,101270.87
2019-01-12T06:44:50.874Z,101269.59
2019-01-12T06:47:19.933Z,101263.66
2019-01-12T06:49:48.949Z,101258.17
2019-01-12T06:52:17.955Z,101262.39
2019-01-12T06:54:47.031Z,101249.30
2019-01-12T06:57:16.076Z,101251.39
2019-01-12T06:59:45.086Z,101244.65
2019-01-12T07:02:14.154Z,101242.09
2019-01-12T07:04:43.495Z,101239.55
2019-01-12T07:07:12.505Z,101236.13
2019-01-12T07:09:41.484Z,101215.88
2019-01-12T07:12:10.554Z,101231.08
2019-01-12T07:14:39.584Z,101231.95
2019-01-12T07:17:08.590Z,101233.61
2019-01-12T07:19:37.653Z,101230.68
2019-01-12T07:22:06.659Z,101226.87
2019-01-12T07:24:35.613Z,101230.28
2019-01-12T07:27:04.677Z,101227.77
2019-01-12T07:29:33.681Z,101223.94
2019-01-12T07:32:03.036Z,101222.24
2019-01-12T07:34:32.029Z,101225.60
2019-01-12T07:37:01.049Z,101220.98
2019-01-12T07:39:30.113Z,101217.59
2019-01-12T07:41:59.123Z,101217.98
2019-01-12T07:44:28.129Z,101214.17
2019-01-12T07:46:57.282Z,101212.10
2019-01-12T07:49:27.134Z,101209.57
2019-01-12T07:51:56.179Z,101203.25
2019-01-12T07:54:25.243Z,101195.23
2019-01-12T07:56:54.258Z,101190.16
2019-01-12T07:59:23.312Z,101186.78
2019-01-12T08:01:52.331Z,101185.48
2019-01-12T08:04:21.402Z,101187.19
2019-01-12T08:06:50.453Z,101192.29
2019-01-12T08:09:19.483Z,101188.44
2019-01-12T08:11:48.542Z,101181.28
2019-01-12T08:14:17.555Z,101181.30
2019-01-12T08:16:46.569Z,101170.28
2019-01-12T08:19:16.231Z,101169.90
2019-01-12T08:21:45.285Z,101157.19
2019-01-12T08:24:14.342Z,101158.84
2019-01-12T08:26:43.319Z,101152.09
2019-01-12T08:29:12.367Z,101153.32
2019-01-12T08:31:41.379Z,101142.74
2019-01-12T08:34:10.417Z,101135.52
2019-01-12T08:36:39.434Z,101123.30
2019-01-12T08:39:08.607Z,101121.55
2019-01-12T08:41:37.682Z,101116.41
2019-01-12T08:44:06.721Z,101103.70
2019-01-12T08:46:35.734Z,101096.42
2019-01-12T08:49:05.152Z,101084.65
2019-01-12T08:51:34.166Z,101082.94
2019-01-12T08:54:03.462Z,101067.31
2019-01-12T08:56:38.199Z,101057.20
2019-01-12T08:59:03.260Z,101051.73
2019-01-12T09:01:32.271Z,101039.09
2019-01-12T09:04:01.386Z,101033.16
2019-01-12T09:06:30.749Z,101028.52
2019-01-12T09:08:59.820Z,101020.52
2019-01-12T09:11:28.828Z,101022.67
2019-01-12T09:13:57.845Z,101009.11
2019-01-12T09:16:26.901Z,101015.08
2019-01-12T09:18:55.962Z,101015.99
2019-01-12T09:21:25.036Z,101005.87
2019-01-12T09:23:54.413Z,101005.48
2019-01-12T09:26:23.429Z,100999.59
2019-01-12T09:28:52.536Z,100986.95
2019-01-12T09:31:21.544Z,100981.81
2019-01-12T09:33:50.863Z,100978.40
2019-01-12T09:36:19.924Z,100965.72
2019-01-12T09:38:48.945Z,100964.02
2019-01-12T09:41:18.002Z,100952.23
2019-01-12T09:43:47.076Z,100942.84
2019-01-12T09:46:16.459Z,100930.65
2019-01-12T09:48:45.498Z,100932.73
2019-01-12T09:51:14.553Z,100927.69
2019-01-12T09:53:43.606Z,100917.98
2019-01-12T09:56:12.638Z,100917.19
2019-01-12T09:58:42.189Z,100904.07
2019-01-12T10:01:11.654Z,100902.38
2019-01-12T10:03:40.662Z,100884.30
2019-01-12T10:06:09.797Z,100882.19
2019-01-12T10:08:38.897Z,100888.06
2019-01-12T10:11:07.911Z,100874.20
2019-01-12T10:13:36.957Z,100864.48
2019-01-12T10:16:06.032Z,100861.91
2019-01-12T10:18:35.045Z,100856.91
2019-01-12T10:21:04.245Z,100851.00
2019-01-12T10:23:33.270Z,100845.88
2019-01-12T10:26:02.326Z,100836.19
2019-01-12T10:28:31.356Z,100826.89
2019-01-12T10:31:00.422Z,100823.04
2019-01-12T10:33:29.432Z,100817.95
2019-01-12T10:35:58.502Z,100818.73
2019-01-12T10:38:27.531Z,100808.17
2019-01-12T10:40:56.581Z,100801.42
2019-01-12T10:43:25.636Z,100795.87
2019-01-12T10:45:54.653Z,100781.92
2019-01-12T10:48:23.712Z,100782.23
2019-01-12T10:50:52.912Z,100772.52
2019-01-12T10:53:22.070Z,100760.22
2019-01-12T10:55:51.304Z,100758.41
2019-01-12T10:58:20.337Z,100747.43
2019-01-12T11:00:49.703Z,100747.81
2019-01-12T11:03:18.814Z,100736.84
2019-01-12T11:05:47.826Z,100734.57
2019-01-12T11:08:16.874Z,100737.45
2019-01-12T11:10:45.882Z,100719.67
2019-01-12T11:13:14.936Z,100716.31
2019-01-12T11:15:43.965Z,100709.13
2019-01-12T11:18:12.980Z,100702.99
2019-01-12T11:20:42.022Z,100686.41
2019-01-12T11:23:11.074Z,100676.00
2019-01-12T11:25:43.106Z,100666.16
2019-01-12T11:28:11.013Z,100660.84
2019-01-12T11:30:40.021Z,100657.38
2019-01-12T11:33:09.462Z,100658.83
2019-01-12T11:35:38.481Z,100653.34
2019-01-12T11:38:07.543Z,100645.67
2019-01-12T11:40:36.561Z,100640.63
2019-01-12T11:43:05.640Z,100653.94
2019-01-12T11:45:34.689Z,100635.80
2019-01-12T11:48:03.718Z,100628.16
2019-01-12T11:50:32.734Z,100632.69
2019-01-12T11:53:01.794Z,100624.08
2019-01-12T11:55:30.848Z,100625.61
2019-01-12T11:57:59.863Z,100623.88
2019-01-12T12:00:30.366Z,100624.83
2019-01-12T12:02:59.934Z,100625.70
2019-01-12T12:05:29.029Z,100619.78
2019-01-12T12:07:58.367Z,100613.84
2019-01-12T12:10:27.648Z,100614.33
2019-01-12T12:12:56.718Z,100604.44
2019-01-12T12:15:25.779Z,100610.47
2019-01-12T12:17:54.790Z,100601.73
2019-01-12T12:20:25.905Z,100605.91
2019-01-12T12:22:55.405Z,100594.09
2019-01-12T12:25:24.422Z,100589.59
2019-01-12T12:27:53.596Z,100582.22
2019-01-12T12:30:27.805Z,100579.06
2019-01-12T12:32:56.823Z,100577.22
2019-01-12T12:35:26.234Z,100575.33
2019-01-12T12:37:55.246Z,100572.91
2019-01-12T12:40:25.093Z,100570.50
2019-01-12T12:42:55.326Z,100564.84
2019-01-12T12:45:30.393Z,100558.27
2019-01-12T12:47:59.385Z,100559.55
2019-01-12T12:50:28.439Z,100547.19
2019-01-12T12:52:57.666Z,100548.89
2019-01-12T12:55:26.669Z,100549.69
2019-01-12T12:57:55.686Z,100545.38
2019-01-12T13:00:27.084Z,100546.88
2019-01-12T13:02:56.100Z,100546.70
2019-01-12T13:05:25.176Z,100541.19
2019-01-12T13:07:54.270Z,100537.75
2019-01-12T13:10:25.505Z,100535.92
2019-01-12T13:12:54.513Z,100529.11
2019-01-12T13:15:23.577Z,100527.80
2019-01-12T13:17:53.001Z,100519.22
2019-01-12T13:20:22.020Z,100516.16
2019-01-12T13:22:51.066Z,100515.11
2019-01-12T13:25:20.112Z,100517.45
2019-01-12T13:27:49.113Z,100512.40
2019-01-12T13:30:20.997Z,100508.55
2019-01-12T13:32:50.310Z,100499.30
2019-01-12T13:35:19.422Z,100501.08
2019-01-12T13:37:48.887Z,100503.92
2019-01-12T13:40:21.640Z,100503.33
2019-01-12T13:42:51.171Z,100505.72
2019-01-12T13:45:20.953Z,100497.77
2019-01-12T13:47:50.009Z,100492.55
2019-01-12T13:50:21.150Z,100501.99
2019-01-12T13:52:50.254Z,100485.71
2019-01-12T13:55:19.583Z,100483.12
2019-01-12T13:57:48.656Z,100479.72
2019-01-12T14:00:26.046Z,100486.89
2019-01-12T14:02:55.148Z,100480.41
2019-01-12T14:05:24.153Z,100477.66
2019-01-12T14:07:56.578Z,100467.77
2019-01-12T14:10:24.947Z,100469.83
2019-01-12T14:12:54.040Z,100467.55
2019-01-12T14:15:23.234Z,100460.46
2019-01-12T14:17:52.255Z,100467.70
2019-01-12T14:20:26.745Z,100459.46
2019-01-12T14:22:55.813Z,100458.48
2019-01-12T14:25:24.854Z,100457.18
2019-01-12T14:27:54.895Z,100454.21
2019-01-12T14:30:24.314Z,100451.33
2019-01-12T14:32:53.368Z,100448.91
2019-01-12T14:35:22.490Z,100447.83
2019-01-12T14:37:51.540Z,100452.09
2019-01-12T14:40:20.583Z,100446.91
2019-01-12T14:42:49.685Z,100454.73
2019-01-12T14:45:26.998Z,100439.02
2019-01-12T14:47:56.012Z,100444.96
2019-01-12T14:50:25.066Z,100443.66
2019-01-12T14:52:54.061Z,100441.09
2019-01-12T14:55:23.270Z,100424.64
2019-01-12T14:57:52.327Z,100422.97
2019-01-12T15:00:23.369Z,100424.24
2019-01-12T15:02:52.501Z,100419.14
2019-01-12T15:05:23.567Z,100408.22
2019-01-12T15:07:52.660Z,100412.83
2019-01-12T15:10:21.823Z,100406.05
2019-01-12T15:12:51.011Z,100411.19
2019-01-12T15:15:20.394Z,100402.34
2019-01-12T15:17:49.519Z,100403.27
2019-01-12T15:20:23.154Z,100404.98
2019-01-12T15:22:52.226Z,100408.41
2019-01-12T15:25:21.721Z,100399.94
2019-01-12T15:27:50.773Z,100396.53
2019-01-12T15:30:30.773Z,100399.22
2019-01-12T15:33:01.498Z,100405.09
2019-01-12T15:35:32.327Z,100397.61
2019-01-12T15:38:01.371Z,100395.80
2019-01-12T15:40:30.388Z,100390.81
2019-01-12T15:42:59.431Z,100393.31
2019-01-12T15:45:28.668Z,100391.16
2019-01-12T15:47:57.705Z,100380.92
2019-01-12T15:50:27.646Z,100390.66
2019-01-12T15:52:56.718Z,100376.25
2019-01-12T15:55:26.025Z,100378.08
2019-01-12T15:57:55.069Z,100369.66
2019-01-12T16:00:28.738Z,100364.62
2019-01-12T16:02:58.046Z,100375.27
2019-01-12T16:05:28.240Z,100369.73
2019-01-12T16:07:57.300Z,100359.49
2019-01-12T16:10:26.449Z,100354.39
2019-01-12T16:12:55.487Z,100343.42
2019-01-12T16:15:28.276Z,100356.53
2019-01-12T16:17:58.747Z,100351.45
2019-01-12T16:20:38.949Z,100359.03
2019-01-12T16:23:08.741Z,100349.41
2019-01-12T16:25:38.951Z,100352.41
2019-01-12T16:28:08.494Z,100348.21
2019-01-12T16:30:37.534Z,100350.77
2019-01-12T16:33:06.624Z,100363.84
2019-01-12T16:35:35.740Z,100356.65
2019-01-12T16:38:05.066Z,100359.18
2019-01-12T16:40:34.131Z,100353.93
2019-01-12T16:43:03.658Z,100353.74
2019-01-12T16:45:32.713Z,100341.50
2019-01-12T16:48:01.726Z,100341.47
2019-01-12T16:50:30.811Z,100349.97
2019-01-12T16:52:59.881Z,100346.34
2019-01-12T16:55:28.959Z,100341.02
2019-01-12T16:57:58.023Z,100334.59
2019-01-12T17:00:31.061Z,100339.95
2019-01-12T17:03:00.825Z,100344.56
2019-01-12T17:05:29.888Z,100336.52
2019-01-12T17:07:59.245Z,100335.59
2019-01-12T17:10:28.318Z,100342.70
2019-01-12T17:12:57.653Z,100334.36
2019-01-12T17:15:26.646Z,100331.70
2019-01-12T17:17:55.684Z,100337.23
2019-01-12T17:20:26.792Z,100323.70
2019-01-12T17:22:58.586Z,100320.67
2019-01-12T17:25:27.613Z,100326.91
2019-01-12T17:27:56.653Z,100327.78
2019-01-12T17:30:25.723Z,100311.74
2019-01-12T17:32:54.767Z,100323.45
2019-01-12T17:35:23.818Z,100323.39
2019-01-12T17:37:52.844Z,100325.06
2019-01-12T17:40:21.894Z,100326.83
2019-01-12T17:42:50.906Z,100331.09
2019-01-12T17:45:21.800Z,100337.73
2019-01-12T17:47:50.824Z,100331.80
2019-01-12T17:50:21.416Z,100326.30
2019-01-12T17:52:51.001Z,100330.19
2019-01-12T17:55:21.776Z,100344.34
2019-01-12T17:57:50.822Z,100340.61
2019-01-12T18:00:32.491Z,100336.03
2019-01-12T18:03:01.542Z,100331.48
2019-01-12T18:05:30.598Z,100334.77
2019-01-12T18:07:59.670Z,100346.72
2019-01-12T18:10:28.730Z,100349.28
2019-01-12T18:12:57.738Z,100345.11
2019-01-12T18:15:26.758Z,100344.16
2019-01-12T18:17:55.818Z,100347.15
2019-01-12T18:20:24.832Z,100340.70
2019-01-12T18:22:53.884Z,100336.27
2019-01-12T18:25:22.933Z,100347.88
2019-01-12T18:27:51.943Z,100343.27
2019-01-12T18:30:21.395Z,100343.78
2019-01-12T18:32:50.507Z,100336.75
2019-01-12T18:35:19.568Z,100343.59
2019-01-12T18:37:48.623Z,100331.31
2019-01-12T18:40:18.060Z,100338.19
2019-01-12T18:42:47.349Z,100344.19
2019-01-12T18:45:17.694Z,100346.04
2019-01-12T18:47:46.858Z,100353.20
2019-01-12T18:50:18.564Z,100340.91
2019-01-12T18:52:48.543Z,100351.91
2019-01-12T18:55:18.107Z,100342.65
2019-01-12T18:57:47.202Z,100336.27
2019-01-12T19:00:18.846Z,100330.80
2019-01-12T19:02:48.000Z,100326.98
2019-01-12T19:05:17.108Z,100320.33
2019-01-12T19:07:46.178Z,100325.03
2019-01-12T19:10:15.325Z,100319.11
2019-01-12T19:12:44.345Z,100316.58
2019-01-12T19:15:16.259Z,100315.66
2019-01-12T19:17:45.282Z,100316.45
2019-01-12T19:20:14.346Z,100316.34
2019-01-12T19:22:43.512Z,100317.12
2019-01-12T19:25:12.653Z,100314.99
2019-01-12T19:27:41.716Z,100310.22
2019-01-12T19:30:16.786Z,100309.76
2019-01-12T19:32:45.949Z,100305.56
2019-01-12T19:35:14.987Z,100302.56
2019-01-12T19:37:44.004Z,100308.84
2019-01-12T19:40:15.304Z,100314.63
2019-01-12T19:42:44.340Z,100309.64
2019-01-12T19:45:14.524Z,100315.34
2019-01-12T19:47:43.606Z,100313.53
2019-01-12T19:50:15.228Z,100319.48
2019-01-12T19:52:44.425Z,100315.45
2019-01-12T19:55:13.804Z,100309.36
2019-01-12T19:57:42.819Z,100312.43
2019-01-12T20:00:16.966Z,100311.01
2019-01-12T20:02:46.217Z,100285.80
2019-01-12T20:05:15.225Z,100302.31
2019-01-12T20:07:44.282Z,100303.30
2019-01-12T20:10:14.902Z,100304.13
2019-01-12T20:12:43.932Z,100307.09
2019-01-12T20:15:15.961Z,100307.53
2019-01-12T20:17:45.003Z,100297.45
2019-01-12T20:20:14.664Z,100307.25
2019-01-12T20:22:43.673Z,100314.69
2019-01-12T20:25:15.504Z,100305.08
2019-01-12T20:27:44.490Z,100303.88
2019-01-12T20:30:22.410Z,100307.15
2019-01-12T20:33:16.840Z,100308.39
2019-01-12T20:36:30.358Z,100305.86
2019-01-12T20:39:20.899Z,100306.61
2019-01-12T20:42:01.501Z,100308.31
2019-01-12T20:44:53.396Z,100311.14
2019-01-12T20:47:36.769Z,100318.45
2019-01-12T20:50:41.563Z,100317.49
2019-01-12T20:53:48.539Z,100319.00
2019-01-12T20:56:28.512Z,100313.94
2019-01-12T20:59:28.321Z,100313.89
2019-01-12T21:02:25.494Z,100317.41
2019-01-12T21:05:29.406Z,100314.66
2019-01-12T21:08:31.974Z,100315.84
2019-01-12T21:11:22.309Z,100314.56
2019-01-12T21:14:25.820Z,100323.09
2019-01-12T21:17:11.887Z,100325.70
2019-01-12T21:19:47.817Z,100328.98
2019-01-12T21:22:11.677Z,100325.95
2019-01-12T21:24:40.725Z,100328.02
2019-01-12T21:27:09.738Z,100323.04
2019-01-12T21:29:38.805Z,100321.39
2019-01-12T21:32:08.214Z,100317.14
2019-01-12T21:34:37.237Z,100310.25
2019-01-12T21:37:06.497Z,100312.78
2019-01-12T21:39:35.571Z,100322.02
2019-01-12T21:42:04.698Z,100312.22
2019-01-12T21:44:33.750Z,100312.67
2019-01-12T21:47:02.804Z,100304.63
2019-01-12T21:49:31.860Z,100300.88
2019-01-12T21:52:00.937Z,100296.81
2019-01-12T21:54:29.993Z,100297.76
2019-01-12T21:56:59.127Z,100299.48
2019-01-12T21:59:28.174Z,100302.87
2019-01-12T22:01:57.319Z,100301.93
2019-01-12T22:04:26.463Z,100300.08
2019-01-12T22:06:55.473Z,100307.27
2019-01-12T22:09:24.571Z,100294.55
2019-01-12T22:11:53.632Z,100285.42
2019-01-12T22:14:22.645Z,100297.84
2019-01-12T22:16:51.666Z,100298.30
2019-01-12T22:19:20.722Z,100295.39
2019-01-12T22:21:49.770Z,100284.69
2019-01-12T22:24:18.797Z,100283.83
2019-01-12T22:26:47.848Z,100280.32
2019-01-12T22:29:16.901Z,100277.36
2019-01-12T22:31:45.957Z,100277.77
2019-01-12T22:34:14.962Z,100284.92
2019-01-12T22:36:43.978Z,100281.36
2019-01-12T22:39:13.046Z,100284.44
2019-01-12T22:41:42.084Z,100286.39
2019-01-12T22:44:11.082Z,100288.03
2019-01-12T22:46:40.143Z,100288.86
2019-01-12T22:49:09.188Z,100284.26
2019-01-12T22:51:38.196Z,100279.16
2019-01-12T22:54:07.277Z,100279.54
2019-01-12T22:56:36.284Z,100283.28
2019-01-12T22:59:05.500Z,100279.82
2019-01-12T23:02:04.562Z,100284.61
2019-01-12T23:04:34.538Z,100282.47
2019-01-12T23:07:03.794Z,100274.72
2019-01-12T23:09:32.882Z,100280.38
2019-01-12T23:12:01.935Z,100279.88
2019-01-12T23:14:30.949Z,100281.92
2019-01-12T23:17:00.201Z,100284.39
2019-01-12T23:19:29.257Z,100283.47
2019-01-12T23:21:58.261Z,100286.77
2019-01-12T23:24:27.320Z,100298.79
2019-01-12T23:26:56.358Z,100295.73
2019-01-12T23:29:25.397Z,100307.20
2019-01-12T23:31:54.448Z,100294.65
2019-01-12T23:34:23.464Z,100305.72
2019-01-12T23:36:52.469Z,100304.39
2019-01-12T23:39:21.543Z,100304.54
2019-01-12T23:41:50.573Z,100302.72
2019-01-12T23:44:19.590Z,100304.87
2019-01-12T23:46:48.641Z,100306.92
2019-01-12T23:49:17.682Z,100320.48
2019-01-12T23:51:46.690Z,100316.41
2019-01-12T23:54:16.146Z,100318.19
2019-01-12T23:56:45.201Z,100322.39
2019-01-12T23:59:14.619Z,100317.39
